^^

..:: Storico WU ::..




Lo storico viene creato da WUnderground con i dati che la stazione Meteomincio invia al loro server. L' aggiornamento viene fatto ogni 5 minuti circa, tuttavia possono esserci intervalli pił ampi a causa di errori, interruzioni di servizio o problemi nell' invio tramite FTP.


Storico stazione MeteoMincio
Giorno Sommario per Settembre 30, 2022 Unità:  Inglese    Metrico   Entrambi
Giorno Settimana Mese Anno
  Max: Min: Media:
Temperatura: 62.6 °F 55.4 °F 59.2 °F
Dew Point: 60.8 °F 53.6 °F 56.5 °F
Umidità: 95% 83% 91%
Velocità vento: 9.3mph 0mph 3.2mph
Raffica: 13mph - -
Direzione- - East
Pressione: 29.9 in 29.6 in -
Precipitazioni: 0.2 in    
 
 
Tabulato Dati per Settembre 30, 2022
Ora Temperatura Dew Point Pressione Direzione Velocità vento Raffica Umidità Intensità pioggia (oraria) Info solare Situazione
00:04 59 °F 53.6 °F 29.6 in NNE 4.3 mph 6.2 mph 83% 0 in 0.00 W/m2 unknown
00:09 59 °F 53.6 °F 29.6 in NE 4.3 mph 6.2 mph 83% 0 in 0.00 W/m2 unknown
00:14 59 °F 53.6 °F 29.6 in NE 3.1 mph 5 mph 83% 0 in 0.00 W/m2 unknown
00:19 59 °F 53.6 °F 29.6 in NE 3.1 mph 3.7 mph 84% 0 in 0.00 W/m2 unknown
00:24 59 °F 53.6 °F 29.6 in NE 3.1 mph 5 mph 84% 0 in 0.00 W/m2 unknown
00:29 59 °F 53.6 °F 29.6 in NE 3.7 mph 5 mph 84% 0 in 0.00 W/m2 unknown
00:34 59 °F 53.6 °F 29.6 in NE 3.7 mph 5 mph 85% 0 in 0.00 W/m2 unknown
00:39 59 °F 53.6 °F 29.6 in ENE 5 mph 6.8 mph 85% 0 in 0.00 W/m2 unknown
00:44 59 °F 53.6 °F 29.6 in ENE 5 mph 6.8 mph 85% 0 in 0.00 W/m2 unknown
00:49 59 °F 53.6 °F 29.6 in ENE 5 mph 6.2 mph 85% 0 in 0.00 W/m2 unknown
00:54 59 °F 53.6 °F 29.6 in ENE 4.3 mph 5 mph 85% 0 in 0.00 W/m2 unknown
00:59 59 °F 53.6 °F 29.6 in East 5 mph 5 mph 85% 0 in 0.00 W/m2 unknown
01:04 59 °F 53.6 °F 29.6 in ENE 3.1 mph 5 mph 85% 0 in 0.00 W/m2 unknown
01:09 59 °F 53.6 °F 29.6 in ENE 3.1 mph 3.7 mph 86% 0 in 0.00 W/m2 unknown
01:14 59 °F 53.6 °F 29.6 in ENE 3.7 mph 5 mph 86% 0 in 0.00 W/m2 unknown
01:19 59 °F 53.6 °F 29.6 in ENE 3.7 mph 5 mph 86% 0 in 0.00 W/m2 unknown
01:24 59 °F 53.6 °F 29.6 in East 3.1 mph 5 mph 85% 0 in 0.00 W/m2 unknown
01:29 59 °F 53.6 °F 29.6 in East 3.1 mph 5 mph 85% 0 in 0.00 W/m2 unknown
01:34 59 °F 53.6 °F 29.6 in ESE 3.1 mph 3.7 mph 85% 0 in 0.00 W/m2 unknown
01:39 59 °F 53.6 °F 29.6 in ESE 3.7 mph 6.2 mph 86% 0 in 0.00 W/m2 unknown
01:44 59 °F 55.4 °F 29.6 in East 3.7 mph 6.2 mph 87% 0 in 0.00 W/m2 unknown
01:49 59 °F 55.4 °F 29.6 in ESE 3.1 mph 6.2 mph 87% 0 in 0.00 W/m2 unknown
01:54 59 °F 55.4 °F 29.6 in East 2.5 mph 5 mph 87% 0 in 0.00 W/m2 unknown
01:59 59 °F 55.4 °F 29.6 in East 3.1 mph 5 mph 87% 0 in 0.00 W/m2 unknown
02:04 59 °F 55.4 °F 29.6 in ESE 3.1 mph 5 mph 88% 0 in 0.00 W/m2 unknown
02:09 59 °F 55.4 °F 29.6 in ESE 3.1 mph 5 mph 88% 0 in 0.00 W/m2 unknown
02:14 59 °F 55.4 °F 29.6 in East 1.9 mph 3.7 mph 88% 0 in 0.00 W/m2 unknown
02:19 59 °F 55.4 °F 29.6 in East 1.2 mph 3.1 mph 88% 0 in 0.00 W/m2 unknown
02:24 59 °F 55.4 °F 29.6 in ENE 1.2 mph 2.5 mph 88% 0 in 0.00 W/m2 unknown
02:29 59 °F 55.4 °F 29.6 in NE 1.2 mph 2.5 mph 89% 0 in 0.00 W/m2 unknown
02:34 59 °F 55.4 °F 29.6 in NNE 1.2 mph 2.5 mph 89% 0 in 0.00 W/m2 unknown
02:39 59 °F 55.4 °F 29.6 in NNW 1.2 mph 2.5 mph 89% 0 in 0.00 W/m2 unknown
02:44 59 °F 55.4 °F 29.6 in NNW 2.5 mph 3.7 mph 89% 0 in 0.00 W/m2 unknown
02:49 59 °F 55.4 °F 29.6 in North 2.5 mph 3.7 mph 89% 0 in 0.00 W/m2 unknown
02:54 59 °F 55.4 °F 29.6 in North 2.5 mph 3.7 mph 89% 0 in 0.00 W/m2 unknown
02:59 59 °F 55.4 °F 29.6 in NNE 1.9 mph 3.7 mph 89% 0 in 0.00 W/m2 unknown
03:04 59 °F 55.4 °F 29.6 in NNE 3.1 mph 5 mph 89% 0 in 0.00 W/m2 unknown
03:09 59 °F 55.4 °F 29.6 in NE 3.1 mph 5 mph 88% 0 in 0.00 W/m2 unknown
03:14 59 °F 55.4 °F 29.6 in NE 3.1 mph 5 mph 88% 0 in 0.00 W/m2 unknown
03:19 59 °F 55.4 °F 29.6 in ENE 3.1 mph 4.3 mph 88% 0 in 0.00 W/m2 unknown
03:24 59 °F 55.4 °F 29.6 in ENE 3.1 mph 5 mph 88% 0 in 0.00 W/m2 unknown
03:29 59 °F 55.4 °F 29.6 in ENE 3.1 mph 5 mph 89% 0 in 0.00 W/m2 unknown
03:34 57.2 °F 53.6 °F 29.6 in East 3.1 mph 5 mph 88% 0 in 0.00 W/m2 unknown
03:39 57.2 °F 53.6 °F 29.6 in ENE 3.1 mph 5 mph 88% 0 in 0.00 W/m2 unknown
03:44 57.2 °F 53.6 °F 29.6 in ENE 3.1 mph 5 mph 88% 0 in 0.00 W/m2 unknown
03:49 57.2 °F 53.6 °F 29.6 in ENE 3.1 mph 3.7 mph 88% 0 in 0.00 W/m2 unknown
03:54 57.2 °F 53.6 °F 29.6 in ENE 3.1 mph 3.7 mph 89% 0 in 0.00 W/m2 unknown
03:59 57.2 °F 53.6 °F 29.6 in ENE 3.1 mph 3.7 mph 89% 0 in 0.00 W/m2 unknown
04:04 57.2 °F 53.6 °F 29.6 in NE 3.1 mph 5 mph 90% 0 in 0.00 W/m2 unknown
04:08 57.2 °F 53.6 °F 29.6 in NE 3.7 mph 6.2 mph 90% 0 in 0.00 W/m2 unknown
04:13 57.2 °F 53.6 °F 29.6 in ENE 3.1 mph 6.2 mph 90% 0 in 0.00 W/m2 unknown
04:18 57.2 °F 53.6 °F 29.6 in ENE 3.1 mph 6.2 mph 90% 0 in 0.00 W/m2 unknown
04:24 57.2 °F 53.6 °F 29.6 in ENE 3.1 mph 5 mph 90% 0 in 0.00 W/m2 unknown
04:29 57.2 °F 53.6 °F 29.6 in ENE 3.1 mph 5 mph 90% 0 in 0.00 W/m2 unknown
04:33 57.2 °F 53.6 °F 29.6 in ENE 3.1 mph 5 mph 90% 0 in 0.00 W/m2 unknown
04:39 57.2 °F 53.6 °F 29.6 in ENE 3.1 mph 5 mph 90% 0 in 0.00 W/m2 unknown
04:43 57.2 °F 53.6 °F 29.6 in ENE 3.1 mph 3.7 mph 90% 0 in 0.00 W/m2 unknown
04:48 57.2 °F 53.6 °F 29.6 in ENE 3.1 mph 3.7 mph 90% 0 in 0.00 W/m2 unknown
04:53 57.2 °F 53.6 °F 29.6 in ENE 3.1 mph 3.7 mph 90% 0 in 0.00 W/m2 unknown
04:59 57.2 °F 53.6 °F 29.6 in NE 3.7 mph 3.7 mph 90% 0 in 0.00 W/m2 unknown
05:03 57.2 °F 53.6 °F 29.6 in ENE 3.7 mph 3.7 mph 90% 0 in 0.00 W/m2 unknown
05:09 57.2 °F 53.6 °F 29.6 in NE 3.1 mph 3.7 mph 90% 0 in 0.00 W/m2 unknown
05:14 55.4 °F 53.6 °F 29.6 in NE 3.1 mph 3.7 mph 90% 0 in 0.00 W/m2 unknown
05:19 55.4 °F 53.6 °F 29.6 in NE 3.1 mph 3.7 mph 90% 0 in 0.00 W/m2 unknown
05:24 55.4 °F 53.6 °F 29.6 in NE 3.1 mph 3.7 mph 90% 0 in 0.00 W/m2 unknown
05:29 55.4 °F 53.6 °F 29.6 in NE 3.1 mph 3.7 mph 91% 0 in 0.00 W/m2 unknown
05:34 55.4 °F 53.6 °F 29.6 in ENE 2.5 mph 3.7 mph 91% 0 in 0.00 W/m2 unknown
05:39 55.4 °F 53.6 °F 29.6 in ENE 3.1 mph 3.7 mph 91% 0 in 0.00 W/m2 unknown
05:44 55.4 °F 53.6 °F 29.6 in NE 3.1 mph 3.7 mph 91% 0 in 0.00 W/m2 unknown
05:49 55.4 °F 53.6 °F 29.6 in NE 3.1 mph 3.7 mph 91% 0 in 0.00 W/m2 unknown
05:54 55.4 °F 53.6 °F 29.6 in NE 3.1 mph 3.7 mph 91% 0 in 0.00 W/m2 unknown
05:59 55.4 °F 53.6 °F 29.6 in ENE 3.1 mph 3.7 mph 91% 0 in 0.00 W/m2 unknown
06:04 55.4 °F 53.6 °F 29.7 in ENE 3.1 mph 3.7 mph 91% 0 in 0.00 W/m2 unknown
06:09 55.4 °F 53.6 °F 29.7 in ENE 3.1 mph 3.7 mph 91% 0 in 0.00 W/m2 unknown
06:14 55.4 °F 53.6 °F 29.7 in ENE 3.1 mph 5 mph 92% 0 in 0.00 W/m2 unknown
06:19 55.4 °F 53.6 °F 29.7 in ENE 3.1 mph 5 mph 92% 0 in 0.00 W/m2 unknown
06:24 55.4 °F 53.6 °F 29.7 in ENE 3.1 mph 5 mph 92% 0 in 0.00 W/m2 unknown
06:29 55.4 °F 53.6 °F 29.7 in ENE 3.1 mph 5 mph 92% 0 in 0.00 W/m2 unknown
06:34 55.4 °F 53.6 °F 29.7 in ENE 3.7 mph 5 mph 92% 0 in 0.00 W/m2 unknown
06:39 55.4 °F 53.6 °F 29.7 in ENE 4.3 mph 5 mph 92% 0 in 0.00 W/m2 unknown
06:44 55.4 °F 53.6 °F 29.7 in ENE 5 mph 5 mph 92% 0 in 0.00 W/m2 unknown
06:49 55.4 °F 53.6 °F 29.7 in NE 3.7 mph 5 mph 92% 0 in 0.00 W/m2 unknown
06:54 55.4 °F 53.6 °F 29.7 in ENE 3.7 mph 4.3 mph 92% 0 in 0.00 W/m2 unknown
06:59 55.4 °F 53.6 °F 29.7 in ENE 3.7 mph 5 mph 92% 0 in 0.00 W/m2 unknown
07:04 55.4 °F 53.6 °F 29.7 in NE 3.1 mph 3.7 mph 92% 0 in 0.00 W/m2 unknown
07:09 55.4 °F 53.6 °F 29.7 in NE 3.1 mph 3.7 mph 92% 0 in 0.00 W/m2 unknown
07:14 55.4 °F 53.6 °F 29.7 in NE 3.1 mph 3.7 mph 92% 0 in 0.00 W/m2 unknown
07:19 55.4 °F 53.6 °F 29.7 in NNE 2.5 mph 3.7 mph 92% 0 in 0.00 W/m2 unknown
07:24 55.4 °F 53.6 °F 29.7 in NNE 2.5 mph 3.7 mph 92% 0 in 5.00 W/m2 unknown
07:29 55.4 °F 53.6 °F 29.7 in NNE 3.1 mph 5 mph 92% 0 in 7.00 W/m2 unknown
07:34 55.4 °F 53.6 °F 29.7 in NE 4.3 mph 6.2 mph 92% 0 in 14.00 W/m2 unknown
07:39 55.4 °F 53.6 °F 29.7 in NE 4.3 mph 6.2 mph 92% 0 in 18.00 W/m2 unknown
07:44 55.4 °F 53.6 °F 29.7 in NE 5 mph 6.2 mph 92% 0 in 23.00 W/m2 unknown
07:49 55.4 °F 53.6 °F 29.7 in ENE 5 mph 5 mph 92% 0 in 28.00 W/m2 unknown
07:54 55.4 °F 53.6 °F 29.7 in ENE 3.1 mph 5 mph 92% 0 in 35.00 W/m2 unknown
07:59 55.4 °F 53.6 °F 29.7 in ENE 3.1 mph 5 mph 92% 0 in 44.00 W/m2 unknown
08:04 55.4 °F 53.6 °F 29.7 in NE 3.1 mph 5 mph 92% 0 in 51.00 W/m2 unknown
08:09 57.2 °F 53.6 °F 29.7 in NE 3.1 mph 3.7 mph 92% 0 in 58.00 W/m2 unknown
08:14 57.2 °F 53.6 °F 29.7 in ENE 2.5 mph 3.7 mph 92% 0 in 60.00 W/m2 unknown
08:19 57.2 °F 53.6 °F 29.7 in ENE 3.1 mph 5 mph 91% 0 in 70.00 W/m2 unknown
08:24 57.2 °F 53.6 °F 29.7 in ENE 3.7 mph 5 mph 91% 0 in 77.00 W/m2 unknown
08:29 57.2 °F 53.6 °F 29.7 in East 3.1 mph 5 mph 91% 0 in 116.00 W/m2 unknown
08:34 57.2 °F 55.4 °F 29.7 in ENE 3.1 mph 5 mph 91% 0 in 156.00 W/m2 unknown
08:39 57.2 °F 55.4 °F 29.7 in NE 5 mph 6.8 mph 91% 0 in 137.00 W/m2 unknown
08:44 57.2 °F 55.4 °F 29.7 in ENE 5.6 mph 6.8 mph 90% 0 in 137.00 W/m2 unknown
08:49 57.2 °F 55.4 °F 29.7 in East 5 mph 6.8 mph 89% 0 in 111.00 W/m2 unknown
08:54 59 °F 55.4 °F 29.7 in East 5 mph 6.8 mph 89% 0 in 114.00 W/m2 unknown
08:59 59 °F 55.4 °F 29.7 in ENE 5 mph 6.8 mph 89% 0 in 118.00 W/m2 unknown
09:04 59 °F 55.4 °F 29.7 in ENE 4.3 mph 8.1 mph 89% 0 in 125.00 W/m2 unknown
09:09 59 °F 55.4 °F 29.7 in ENE 5 mph 8.1 mph 89% 0 in 141.00 W/m2 unknown
09:14 59 °F 55.4 °F 29.7 in East 6.2 mph 9.9 mph 89% 0 in 151.00 W/m2 unknown
09:19 59 °F 55.4 °F 29.7 in East 6.8 mph 10.6 mph 89% 0 in 165.00 W/m2 unknown
09:24 59 °F 55.4 °F 29.7 in East 6.8 mph 10.6 mph 88% 0 in 181.00 W/m2 unknown
09:29 60.8 °F 55.4 °F 29.7 in East 6.2 mph 9.9 mph 87% 0 in 179.00 W/m2 unknown
09:34 60.8 °F 57.2 °F 29.7 in ENE 6.2 mph 8.1 mph 87% 0 in 174.00 W/m2 unknown
09:39 60.8 °F 57.2 °F 29.7 in East 6.2 mph 13 mph 87% 0 in 269.00 W/m2 unknown
09:44 60.8 °F 57.2 °F 29.7 in ESE 8.1 mph 13 mph 87% 0 in 269.00 W/m2 unknown
09:49 60.8 °F 57.2 °F 29.7 in East 7.5 mph 13 mph 86% 0 in 207.00 W/m2 unknown
09:54 60.8 °F 57.2 °F 29.7 in ESE 6.2 mph 8.7 mph 86% 0 in 165.00 W/m2 unknown
09:59 60.8 °F 57.2 °F 29.7 in ESE 6.2 mph 8.1 mph 86% 0 in 139.00 W/m2 unknown
10:04 60.8 °F 57.2 °F 29.7 in East 7.5 mph 11.8 mph 85% 0 in 127.00 W/m2 unknown
10:09 60.8 °F 57.2 °F 29.7 in ENE 8.1 mph 11.8 mph 85% 0 in 127.00 W/m2 unknown
10:14 60.8 °F 57.2 °F 29.7 in East 6.8 mph 11.8 mph 85% 0 in 114.00 W/m2 unknown
10:19 60.8 °F 57.2 °F 29.7 in East 8.1 mph 11.8 mph 84% 0 in 93.00 W/m2 unknown
10:24 60.8 °F 57.2 °F 29.8 in East 9.3 mph 11.8 mph 84% 0 in 91.00 W/m2 unknown
10:29 60.8 °F 57.2 °F 29.8 in East 8.7 mph 11.8 mph 84% 0 in 84.00 W/m2 unknown
10:34 60.8 °F 57.2 °F 29.8 in East 8.1 mph 11.8 mph 85% 0 in 77.00 W/m2 unknown
10:39 60.8 °F 57.2 °F 29.8 in ESE 6.8 mph 8.7 mph 85% 0 in 65.00 W/m2 unknown
10:44 60.8 °F 57.2 °F 29.8 in East 7.5 mph 9.3 mph 85% 0 in 47.00 W/m2 unknown
10:49 60.8 °F 57.2 °F 29.8 in East 6.8 mph 9.3 mph 86% 0 in 54.00 W/m2 unknown
10:54 60.8 °F 57.2 °F 29.8 in East 6.2 mph 9.3 mph 87% 0.01 in 65.00 W/m2 unknown
10:59 60.8 °F 57.2 °F 29.8 in East 6.2 mph 9.9 mph 88% 0.01 in 70.00 W/m2 unknown
11:04 60.8 °F 57.2 °F 29.8 in East 6.8 mph 10.6 mph 88% 0.02 in 70.00 W/m2 unknown
11:09 60.8 °F 57.2 °F 29.8 in East 6.2 mph 9.9 mph 88% 0.02 in 67.00 W/m2 unknown
11:14 60.8 °F 57.2 °F 29.8 in East 5 mph 6.8 mph 89% 0.02 in 62.00 W/m2 unknown
11:19 60.8 °F 57.2 °F 29.8 in ESE 5 mph 6.8 mph 89% 0.02 in 58.00 W/m2 unknown
11:24 60.8 °F 57.2 °F 29.8 in ESE 3.1 mph 6.2 mph 89% 0.02 in 49.00 W/m2 unknown
11:29 60.8 °F 57.2 °F 29.8 in ESE 1.9 mph 5 mph 89% 0.02 in 54.00 W/m2 unknown
11:33 60.8 °F 57.2 °F 29.8 in East 1.9 mph 3.7 mph 89% 0.02 in 69.00 W/m2 unknown
11:37 60.8 °F 57.2 °F 29.8 in ENE 2.5 mph 3.7 mph 89% 0.02 in 69.00 W/m2 unknown
11:40 60.8 °F 57.2 °F 29.8 in ENE 2.5 mph 3.7 mph 89% 0.02 in 69.00 W/m2 unknown
11:49 60.8 °F 57.2 °F 29.8 in NE 2.5 mph 3.7 mph 90% 0.02 in 97.00 W/m2 unknown
11:54 60.8 °F 57.2 °F 29.8 in NE 2.5 mph 3.7 mph 89% 0.02 in 98.00 W/m2 unknown
11:59 60.8 °F 57.2 °F 29.8 in NE 2.5 mph 3.7 mph 89% 0.02 in 100.00 W/m2 unknown
12:04 60.8 °F 57.2 °F 29.8 in NNE 1.9 mph 3.7 mph 90% 0.02 in 100.00 W/m2 unknown
12:09 60.8 °F 59 °F 29.8 in NNE 1.9 mph 3.7 mph 90% 0.02 in 98.00 W/m2 unknown
12:14 60.8 °F 59 °F 29.8 in NE 3.1 mph 3.7 mph 90% 0.02 in 105.00 W/m2 unknown
12:19 60.8 °F 59 °F 29.8 in NE 4.3 mph 5 mph 90% 0.01 in 111.00 W/m2 unknown
12:24 60.8 °F 59 °F 29.8 in NE 3.7 mph 5 mph 90% 0.02 in 111.00 W/m2 unknown
12:29 60.8 °F 59 °F 29.8 in NE 3.7 mph 5 mph 90% 0.02 in 102.00 W/m2 unknown
12:34 60.8 °F 59 °F 29.8 in NE 3.7 mph 5 mph 90% 0.01 in 90.00 W/m2 unknown
12:39 60.8 °F 57.2 °F 29.8 in NE 3.7 mph 5 mph 90% 0.01 in 90.00 W/m2 unknown
12:44 60.8 °F 57.2 °F 29.8 in NE 4.3 mph 6.8 mph 90% 0.01 in 86.00 W/m2 unknown
12:49 60.8 °F 59 °F 29.8 in NE 4.3 mph 6.8 mph 91% 0.01 in 86.00 W/m2 unknown
12:54 60.8 °F 59 °F 29.8 in NE 3.7 mph 6.8 mph 91% 0.02 in 86.00 W/m2 unknown
12:59 60.8 °F 59 °F 29.8 in NE 3.7 mph 6.2 mph 91% 0.02 in 90.00 W/m2 unknown
13:04 60.8 °F 59 °F 29.8 in NE 4.3 mph 6.2 mph 91% 0.02 in 91.00 W/m2 unknown
13:09 60.8 °F 59 °F 29.8 in NE 5 mph 6.8 mph 92% 0.02 in 91.00 W/m2 unknown
13:14 60.8 °F 59 °F 29.8 in NE 5 mph 6.8 mph 92% 0.02 in 90.00 W/m2 unknown
13:19 60.8 °F 59 °F 29.8 in NE 5 mph 6.8 mph 92% 0.02 in 95.00 W/m2 unknown
13:24 60.8 °F 59 °F 29.8 in ENE 3.1 mph 5 mph 92% 0.02 in 100.00 W/m2 unknown
13:29 60.8 °F 59 °F 29.8 in NE 3.1 mph 5 mph 92% 0.02 in 98.00 W/m2 unknown
13:34 60.8 °F 59 °F 29.8 in NE 3.7 mph 5 mph 92% 0.02 in 93.00 W/m2 unknown
13:39 60.8 °F 59 °F 29.8 in ENE 3.1 mph 5 mph 92% 0.02 in 86.00 W/m2 unknown
13:44 60.8 °F 59 °F 29.8 in ENE 3.1 mph 5 mph 92% 0.02 in 76.00 W/m2 unknown
13:49 60.8 °F 59 °F 29.8 in East 3.1 mph 5 mph 92% 0.02 in 56.00 W/m2 unknown
13:54 60.8 °F 59 °F 29.8 in East 2.5 mph 3.7 mph 93% 0.02 in 60.00 W/m2 unknown
13:59 62.6 °F 59 °F 29.8 in East 3.1 mph 8.1 mph 93% 0.02 in 58.00 W/m2 unknown
14:04 60.8 °F 59 °F 29.8 in East 4.3 mph 8.1 mph 93% 0.02 in 58.00 W/m2 unknown
14:09 60.8 °F 59 °F 29.8 in East 5.6 mph 8.1 mph 92% 0.02 in 58.00 W/m2 unknown
14:14 60.8 °F 59 °F 29.8 in ENE 5 mph 6.8 mph 92% 0.02 in 58.00 W/m2 unknown
14:19 60.8 °F 59 °F 29.8 in ENE 3.7 mph 8.1 mph 92% 0.02 in 56.00 W/m2 unknown
14:24 60.8 °F 59 °F 29.8 in ENE 4.3 mph 8.1 mph 92% 0.02 in 63.00 W/m2 unknown
14:29 60.8 °F 59 °F 29.8 in NE 5 mph 8.1 mph 92% 0.03 in 70.00 W/m2 unknown
14:34 60.8 °F 59 °F 29.8 in NE 4.3 mph 6.8 mph 92% 0.03 in 70.00 W/m2 unknown
14:39 60.8 °F 59 °F 29.8 in NE 3.1 mph 6.8 mph 92% 0.03 in 67.00 W/m2 unknown
14:44 60.8 °F 59 °F 29.8 in NE 2.5 mph 3.7 mph 92% 0.02 in 60.00 W/m2 unknown
14:49 60.8 °F 59 °F 29.8 in ENE 3.1 mph 3.7 mph 92% 0.03 in 58.00 W/m2 unknown
14:54 60.8 °F 59 °F 29.8 in ENE 3.1 mph 6.2 mph 92% 0.03 in 69.00 W/m2 unknown
14:59 60.8 °F 59 °F 29.8 in ENE 3.1 mph 6.2 mph 92% 0.03 in 72.00 W/m2 unknown
15:04 60.8 °F 59 °F 29.8 in ENE 3.1 mph 6.2 mph 92% 0.04 in 69.00 W/m2 unknown
15:09 60.8 °F 59 °F 29.8 in ENE 3.7 mph 6.2 mph 92% 0.04 in 67.00 W/m2 unknown
15:14 60.8 °F 59 °F 29.8 in ENE 3.1 mph 5 mph 92% 0.04 in 67.00 W/m2 unknown
15:19 60.8 °F 59 °F 29.8 in East 1.9 mph 3.7 mph 92% 0.04 in 65.00 W/m2 unknown
15:24 60.8 °F 59 °F 29.8 in ENE 1.2 mph 3.7 mph 92% 0.04 in 65.00 W/m2 unknown
15:29 60.8 °F 59 °F 29.8 in ENE 1.2 mph 3.7 mph 92% 0.04 in 58.00 W/m2 unknown
15:34 60.8 °F 59 °F 29.8 in ENE 1.9 mph 3.7 mph 93% 0.03 in 58.00 W/m2 unknown
15:39 60.8 °F 59 °F 29.8 in NE 2.5 mph 3.7 mph 93% 0.04 in 58.00 W/m2 unknown
15:44 60.8 °F 59 °F 29.8 in NE 2.5 mph 3.7 mph 93% 0.03 in 51.00 W/m2 unknown
15:49 60.8 °F 59 °F 29.8 in NNE 1.9 mph 3.7 mph 93% 0.04 in 49.00 W/m2 unknown
15:54 60.8 °F 59 °F 29.8 in NNE 1.9 mph 3.1 mph 93% 0.04 in 49.00 W/m2 unknown
15:59 60.8 °F 59 °F 29.8 in NE 1.2 mph 2.5 mph 93% 0.05 in 46.00 W/m2 unknown
16:04 60.8 °F 59 °F 29.8 in NE 2.5 mph 3.7 mph 93% 0.05 in 40.00 W/m2 unknown
16:09 60.8 °F 59 °F 29.8 in NE 2.5 mph 3.7 mph 93% 0.05 in 39.00 W/m2 unknown
16:14 60.8 °F 59 °F 29.8 in NE 1.9 mph 3.7 mph 93% 0.06 in 47.00 W/m2 unknown
16:19 60.8 °F 59 °F 29.8 in NE 1.9 mph 3.7 mph 93% 0.06 in 51.00 W/m2 unknown
16:24 60.8 °F 59 °F 29.8 in NE 0.6 mph 2.5 mph 93% 0.06 in 49.00 W/m2 unknown
16:29 60.8 °F 59 °F 29.8 in Calm   1.2 mph 93% 0.07 in 53.00 W/m2 unknown
16:34 60.8 °F 59 °F 29.8 in NNE 0.6 mph 1.9 mph 93% 0.06 in 60.00 W/m2 unknown
16:39 60.8 °F 59 °F 29.8 in North 1.9 mph 3.7 mph 93% 0.07 in 74.00 W/m2 unknown
16:44 60.8 °F 59 °F 29.8 in NNE 2.5 mph 3.7 mph 93% 0.08 in 98.00 W/m2 unknown
16:49 62.6 °F 60.8 °F 29.8 in NNE 2.5 mph 3.7 mph 94% 0.08 in 120.00 W/m2 unknown
16:54 62.6 °F 60.8 °F 29.8 in NNE 2.5 mph 5 mph 94% 0.08 in 113.00 W/m2 unknown
16:59 60.8 °F 59 °F 29.8 in NE 3.1 mph 4.3 mph 93% 0.08 in 83.00 W/m2 unknown
17:04 60.8 °F 59 °F 29.8 in ENE 3.1 mph 5 mph 93% 0.08 in 83.00 W/m2 unknown
17:09 60.8 °F 59 °F 29.8 in NE 3.7 mph 6.2 mph 93% 0.07 in 69.00 W/m2 unknown
17:14 60.8 °F 59 °F 29.8 in ENE 3.7 mph 6.2 mph 93% 0.07 in 49.00 W/m2 unknown
17:19 60.8 °F 59 °F 29.8 in ENE 5 mph 6.8 mph 93% 0.06 in 35.00 W/m2 unknown
17:24 60.8 °F 59 °F 29.8 in ENE 5 mph 6.8 mph 93% 0.06 in 35.00 W/m2 unknown
17:29 60.8 °F 59 °F 29.8 in ENE 5 mph 6.8 mph 93% 0.06 in 28.00 W/m2 unknown
17:34 60.8 °F 59 °F 29.8 in ENE 5 mph 6.8 mph 93% 0.06 in 26.00 W/m2 unknown
17:39 60.8 °F 59 °F 29.8 in ENE 0.6 mph 3.1 mph 93% 0.05 in 33.00 W/m2 unknown
17:44 60.8 °F 59 °F 29.8 in East 1.9 mph 3.7 mph 93% 0.04 in 32.00 W/m2 unknown
17:49 60.8 °F 59 °F 29.8 in East 1.9 mph 3.7 mph 93% 0.04 in 28.00 W/m2 unknown
17:54 60.8 °F 59 °F 29.8 in East 3.1 mph 5 mph 93% 0.04 in 37.00 W/m2 unknown
17:59 60.8 °F 59 °F 29.8 in ENE 3.1 mph 5 mph 93% 0.03 in 39.00 W/m2 unknown
18:04 60.8 °F 59 °F 29.8 in East 2.5 mph 6.2 mph 94% 0.03 in 40.00 W/m2 unknown
18:09 60.8 °F 59 °F 29.8 in ENE 3.1 mph 6.2 mph 93% 0.02 in 35.00 W/m2 unknown
18:14 60.8 °F 59 °F 29.8 in ENE 3.1 mph 6.2 mph 93% 0.02 in 32.00 W/m2 unknown
18:19 60.8 °F 57.2 °F 29.8 in East 2.5 mph 3.7 mph 93% 0.02 in 18.00 W/m2 unknown
18:24 60.8 °F 57.2 °F 29.9 in East 2.5 mph 5 mph 93% 0.02 in 11.00 W/m2 unknown
18:29 60.8 °F 59 °F 29.9 in East 2.5 mph 5 mph 94% 0.02 in 5.00 W/m2 unknown
18:34 60.8 °F 59 °F 29.9 in ENE 1.9 mph 5 mph 94% 0.02 in 5.00 W/m2 unknown
18:39 60.8 °F 59 °F 29.9 in ENE 1.9 mph 3.1 mph 94% 0.02 in 5.00 W/m2 unknown
18:44 60.8 °F 59 °F 29.9 in ENE 1.9 mph 3.7 mph 94% 0.01 in 5.00 W/m2 unknown
18:49 59 °F 59 °F 29.9 in ENE 1.9 mph 3.7 mph 94% 0.01 in 5.00 W/m2 unknown
18:54 59 °F 59 °F 29.9 in ENE 2.5 mph 3.7 mph 94% 0.01 in 0.00 W/m2 unknown
18:59 59 °F 57.2 °F 29.9 in ENE 2.5 mph 3.7 mph 94% 0.01 in 0.00 W/m2 unknown
19:04 59 °F 57.2 °F 29.9 in ENE 1.9 mph 3.7 mph 94% 0.01 in 0.00 W/m2 unknown
19:09 59 °F 57.2 °F 29.9 in ENE 1.2 mph 2.5 mph 94% 0.01 in 0.00 W/m2 unknown
19:14 59 °F 57.2 °F 29.9 in Calm   1.9 mph 94% 0.01 in 0.00 W/m2 unknown
19:19 59 °F 57.2 °F 29.9 in Calm     94% 0.01 in 0.00 W/m2 unknown
19:24 59 °F 57.2 °F 29.9 in Calm     94% 0.01 in 0.00 W/m2 unknown
19:29 59 °F 57.2 °F 29.9 in Calm     94% 0.01 in 0.00 W/m2 unknown
19:34 59 °F 57.2 °F 29.9 in Calm     94% 0.01 in 0.00 W/m2 unknown
19:38 59 °F 57.2 °F 29.9 in Calm     94% 0.01 in 0.00 W/m2 unknown
19:44 59 °F 57.2 °F 29.9 in Calm     94% 0.01 in 0.00 W/m2 unknown
19:49 59 °F 57.2 °F 29.9 in Calm   1.9 mph 94% 0.01 in 0.00 W/m2 unknown
19:54 59 °F 57.2 °F 29.9 in East 1.2 mph 2.5 mph 94% 0.01 in 0.00 W/m2 unknown
19:59 59 °F 57.2 °F 29.9 in East 1.2 mph 2.5 mph 94% 0.01 in 0.00 W/m2 unknown
20:04 59 °F 57.2 °F 29.9 in East 1.2 mph 1.9 mph 94% 0.01 in 0.00 W/m2 unknown
20:09 59 °F 57.2 °F 29.9 in East 1.2 mph 2.5 mph 94% 0.01 in 0.00 W/m2 unknown
20:14 59 °F 57.2 °F 29.9 in East 1.2 mph 2.5 mph 94% 0.01 in 0.00 W/m2 unknown
20:19 59 °F 59 °F 29.9 in SE 1.2 mph 3.7 mph 95% 0.01 in 0.00 W/m2 unknown
20:24 59 °F 57.2 °F 29.9 in SSW 1.2 mph 3.7 mph 94% 0.01 in 0.00 W/m2 unknown
20:29 59 °F 57.2 °F 29.9 in SSW 1.2 mph 3.1 mph 94% 0.01 in 0.00 W/m2 unknown
20:34 59 °F 57.2 °F 29.9 in Calm   1.9 mph 94% 0.01 in 0.00 W/m2 unknown
20:39 59 °F 57.2 °F 29.9 in SSW 0.6 mph 1.2 mph 95% 0.01 in 0.00 W/m2 unknown
20:44 59 °F 57.2 °F 29.9 in Calm   1.2 mph 95% 0 in 0.00 W/m2 unknown
20:49 59 °F 57.2 °F 29.9 in SSW 0.6 mph 1.9 mph 94% 0 in 0.00 W/m2 unknown
20:54 59 °F 57.2 °F 29.9 in SW 1.9 mph 3.7 mph 94% 0 in 0.00 W/m2 unknown
20:59 59 °F 57.2 °F 29.9 in WSW 1.9 mph 3.7 mph 94% 0 in 0.00 W/m2 unknown
21:04 59 °F 57.2 °F 29.9 in West 1.9 mph 3.7 mph 94% 0 in 0.00 W/m2 unknown
21:09 59 °F 57.2 °F 29.9 in West 1.2 mph 3.1 mph 94% 0 in 0.00 W/m2 unknown
21:14 59 °F 57.2 °F 29.9 in West 1.2 mph 2.5 mph 95% 0 in 0.00 W/m2 unknown
21:19 59 °F 57.2 °F 29.9 in West 2.5 mph 3.7 mph 95% 0 in 0.00 W/m2 unknown
21:24 59 °F 57.2 °F 29.9 in West 2.5 mph 3.7 mph 95% 0 in 0.00 W/m2 unknown
21:29 59 °F 57.2 °F 29.9 in West 1.2 mph 3.1 mph 95% 0 in 0.00 W/m2 unknown
21:34 59 °F 57.2 °F 29.9 in WSW 1.9 mph 2.5 mph 95% 0 in 0.00 W/m2 unknown
21:39 59 °F 57.2 °F 29.9 in West 1.9 mph 2.5 mph 95% 0 in 0.00 W/m2 unknown
21:44 59 °F 57.2 °F 29.9 in West 1.9 mph 2.5 mph 95% 0 in 0.00 W/m2 unknown
21:49 59 °F 57.2 °F 29.9 in WSW 1.9 mph 2.5 mph 95% 0 in 0.00 W/m2 unknown
21:54 59 °F 57.2 °F 29.9 in WSW 1.9 mph 3.7 mph 95% 0 in 0.00 W/m2 unknown
21:59 59 °F 57.2 °F 29.9 in WSW 2.5 mph 3.7 mph 95% 0 in 0.00 W/m2 unknown
22:04 59 °F 57.2 °F 29.9 in WSW 2.5 mph 3.7 mph 95% 0 in 0.00 W/m2 unknown
22:09 59 °F 57.2 °F 29.9 in WSW 1.2 mph 3.1 mph 95% 0 in 0.00 W/m2 unknown
22:14 59 °F 57.2 °F 29.9 in West 1.2 mph 3.1 mph 95% 0 in 0.00 W/m2 unknown
22:19 59 °F 57.2 °F 29.9 in West 1.9 mph 3.7 mph 95% 0 in 0.00 W/m2 unknown
22:24 59 °F 57.2 °F 29.9 in West 1.9 mph 3.7 mph 95% 0 in 0.00 W/m2 unknown
22:29 59 °F 57.2 °F 29.9 in West 2.5 mph 5 mph 95% 0 in 0.00 W/m2 unknown
22:34 59 °F 57.2 °F 29.9 in West 2.5 mph 5 mph 95% 0 in 0.00 W/m2 unknown
22:39 59 °F 57.2 °F 29.9 in WSW 1.9 mph 5 mph 95% 0 in 0.00 W/m2 unknown
22:44 59 °F 57.2 °F 29.9 in WSW 1.9 mph 3.1 mph 95% 0 in 0.00 W/m2 unknown
22:49 59 °F 57.2 °F 29.9 in West 1.9 mph 3.7 mph 95% 0 in 0.00 W/m2 unknown
22:54 59 °F 57.2 °F 29.9 in West 1.9 mph 3.7 mph 95% 0 in 0.00 W/m2 unknown
22:59 59 °F 57.2 °F 29.9 in West 2.5 mph 3.7 mph 95% 0 in 0.00 W/m2 unknown
23:04 59 °F 57.2 °F 29.9 in WSW 2.5 mph 3.7 mph 95% 0 in 0.00 W/m2 unknown
23:09 59 °F 57.2 °F 29.9 in WSW 1.9 mph 3.7 mph 95% 0 in 0.00 W/m2 unknown
23:14 59 °F 57.2 °F 29.9 in WSW 2.5 mph 3.7 mph 95% 0 in 0.00 W/m2 unknown
23:19 59 °F 57.2 °F 29.9 in WSW 1.9 mph 3.7 mph 95% 0 in 0.00 W/m2 unknown
23:24 59 °F 57.2 °F 29.9 in WSW 1.9 mph 3.7 mph 95% 0 in 0.00 W/m2 unknown
23:29 59 °F 57.2 °F 29.9 in WSW 1.9 mph 3.7 mph 95% 0 in 0.00 W/m2 unknown
23:34 59 °F 57.2 °F 29.9 in WSW 1.9 mph 2.5 mph 95% 0 in 0.00 W/m2 unknown
23:39 59 °F 57.2 °F 29.9 in WSW 2.5 mph 3.7 mph 95% 0 in 0.00 W/m2 unknown
23:44 59 °F 57.2 °F 29.9 in WSW 2.5 mph 3.7 mph 95% 0 in 0.00 W/m2 unknown
23:49 59 °F 57.2 °F 29.9 in WSW 1.9 mph 3.7 mph 95% 0 in 0.00 W/m2 unknown
23:54 59 °F 57.2 °F 29.9 in West 2.5 mph 5 mph 95% 0 in 0.00 W/m2 unknown
23:59 59 °F 57.2 °F 29.9 in West 3.7 mph 5 mph 95% 0 in 0.00 W/m2 unknown
Stazione Meteorologica MeteoMincio Rivalta s/M (MN)
Con i complimenti di Weather Underground - 4 mb



METEO PILLOLE
Il luogo più piovoso della Terra
Lloro - Colombia
Ogni anno cadono in media 13300 millimetri di pioggia.
Share

Non seguire questo link o sarai bannato dal sito!